createdAt,value
2022-08-22T00:01:53.729Z,47.80
2022-08-22T00:02:49.198Z,48.70
2022-08-22T00:02:53.247Z,51.10
2022-08-22T00:02:54.995Z,48.60
2022-08-22T00:03:08.059Z,49.00
2022-08-22T00:03:08.059Z,49.00
2022-08-22T00:04:35.418Z,47.80
2022-08-22T00:07:02.198Z,48.00
2022-08-22T00:09:35.591Z,48.20
2022-08-22T00:12:04.278Z,48.30
2022-08-22T00:14:34.999Z,48.40
2022-08-22T00:17:06.564Z,48.40
2022-08-22T00:19:51.283Z,48.50
2022-08-22T00:22:20.680Z,48.70
2022-08-22T00:25:06.748Z,48.80
2022-08-22T00:28:09.829Z,48.80
2022-08-22T00:30:56.867Z,48.90
2022-08-22T00:33:29.667Z,48.90
2022-08-22T00:36:05.603Z,48.90
2022-08-22T00:38:34.618Z,49.00
2022-08-22T00:41:04.399Z,49.00
2022-08-22T00:43:49.988Z,49.00
2022-08-22T00:46:35.522Z,49.00
2022-08-22T00:49:02.318Z,49.00
2022-08-22T00:51:32.006Z,49.00
2022-08-22T00:54:10.086Z,49.00
2022-08-22T00:56:50.622Z,49.00
2022-08-22T00:59:36.015Z,49.00
2022-08-22T01:02:03.915Z,49.10
2022-08-22T01:04:45.896Z,49.10
2022-08-22T01:07:38.346Z,49.10
2022-08-22T01:10:14.745Z,49.10
2022-08-22T01:12:41.440Z,49.10
2022-08-22T01:15:09.660Z,49.10
2022-08-22T01:17:39.402Z,49.70
2022-08-22T01:20:09.112Z,49.50
2022-08-22T01:22:48.270Z,49.30
2022-08-22T01:25:33.740Z,49.10
2022-08-22T01:28:12.657Z,48.50
2022-08-22T01:30:54.981Z,48.20
2022-08-22T01:33:30.796Z,47.80
2022-08-22T01:36:16.355Z,47.20
2022-08-22T01:39:02.282Z,47.90
2022-08-22T01:42:04.613Z,47.30
2022-08-22T01:44:37.240Z,48.20
2022-08-22T01:47:05.786Z,47.60
2022-08-22T01:49:37.669Z,47.70
2022-08-22T01:52:23.139Z,48.00
2022-08-22T01:54:49.906Z,48.20
2022-08-22T01:57:16.635Z,48.20
2022-08-22T01:59:44.252Z,48.10
2022-08-22T02:02:14.973Z,48.10
2022-08-22T02:04:47.847Z,48.20
2022-08-22T02:07:39.279Z,48.30
2022-08-22T02:10:06.246Z,48.30
2022-08-22T02:12:42.241Z,48.30
2022-08-22T02:15:21.162Z,48.40
2022-08-22T02:17:54.560Z,48.20
2022-08-22T02:20:25.477Z,48.30
2022-08-22T02:23:00.948Z,48.30
2022-08-22T02:25:32.765Z,48.40
2022-08-22T02:28:09.547Z,48.30
2022-08-22T02:30:47.129Z,48.40
2022-08-22T02:33:25.506Z,48.40
2022-08-22T02:35:54.638Z,48.40
2022-08-22T02:38:39.035Z,48.50
2022-08-22T02:41:24.463Z,48.50
2022-08-22T02:43:53.308Z,48.50
2022-08-22T02:46:40.225Z,48.60
2022-08-22T02:49:09.993Z,48.60
2022-08-22T02:51:41.489Z,48.80
2022-08-22T02:54:18.205Z,48.70
2022-08-22T02:56:57.967Z,48.60
2022-08-22T02:59:35.378Z,49.10
2022-08-22T03:02:20.927Z,48.90
2022-08-22T03:04:51.308Z,48.50
2022-08-22T03:07:21.072Z,48.20
2022-08-22T03:09:49.029Z,47.80
2022-08-22T03:12:19.089Z,47.40
2022-08-22T03:14:59.150Z,46.80
2022-08-22T03:17:46.651Z,46.80
2022-08-22T03:20:14.179Z,46.90
2022-08-22T03:23:00.037Z,47.10
2022-08-22T03:25:47.040Z,47.20
2022-08-22T03:28:24.661Z,47.20
2022-08-22T03:30:51.355Z,47.40
2022-08-22T03:33:21.837Z,47.40
2022-08-22T03:35:49.226Z,47.50
2022-08-22T03:38:48.408Z,47.50
2022-08-22T03:41:24.315Z,47.60
2022-08-22T03:44:11.724Z,47.70
2022-08-22T03:46:57.189Z,47.70
2022-08-22T03:49:26.958Z,47.80
2022-08-22T03:51:59.673Z,47.90
2022-08-22T03:54:44.802Z,47.90
2022-08-22T03:57:20.876Z,47.80
2022-08-22T04:00:06.313Z,47.80
2022-08-22T04:02:47.316Z,47.80
2022-08-22T04:05:26.367Z,47.80
2022-08-22T04:08:13.015Z,47.80
2022-08-22T04:11:15.726Z,47.80
2022-08-22T04:13:57.707Z,47.80
2022-08-22T04:16:24.439Z,47.80
2022-08-22T04:18:51.099Z,47.90
2022-08-22T04:21:27.291Z,47.80
2022-08-22T04:23:57.000Z,48.00
2022-08-22T04:26:42.741Z,47.90
2022-08-22T04:29:14.623Z,48.00
2022-08-22T04:32:04.696Z,48.00
2022-08-22T04:34:34.452Z,48.00
2022-08-22T04:37:24.513Z,48.00
2022-08-22T04:39:59.857Z,48.60
2022-08-22T04:42:33.250Z,48.50
2022-08-22T04:45:03.329Z,48.20
2022-08-22T04:47:31.157Z,47.90
2022-08-22T04:50:14.809Z,47.40
2022-08-22T04:53:02.969Z,47.20
2022-08-22T04:55:32.862Z,46.70
2022-08-22T04:58:06.822Z,46.60
2022-08-22T05:00:45.570Z,46.50
2022-08-22T05:03:14.545Z,46.60
2022-08-22T05:05:41.647Z,46.80
2022-08-22T05:08:09.940Z,47.00
2022-08-22T05:10:42.574Z,47.10
2022-08-22T05:13:12.074Z,47.40
2022-08-22T05:15:42.604Z,47.60
2022-08-22T05:18:10.304Z,47.50
2022-08-22T05:20:37.446Z,47.50
2022-08-22T05:23:17.490Z,47.50
2022-08-22T05:25:44.593Z,47.60
2022-08-22T05:28:31.273Z,47.60
2022-08-22T05:30:57.962Z,47.70
2022-08-22T05:33:26.530Z,47.70
2022-08-22T05:35:57.943Z,47.70
2022-08-22T05:38:29.360Z,47.70
2022-08-22T05:41:16.286Z,47.90
2022-08-22T05:43:43.394Z,48.10
2022-08-22T05:46:16.925Z,48.20
2022-08-22T05:48:44.228Z,48.50
2022-08-22T05:51:21.480Z,48.40
2022-08-22T05:53:49.586Z,49.00
2022-08-22T05:56:26.529Z,48.50
2022-08-22T05:58:54.614Z,48.50
2022-08-22T06:01:27.711Z,48.60
2022-08-22T06:04:04.712Z,48.70
2022-08-22T06:06:32.261Z,48.80
2022-08-22T06:09:10.329Z,48.80
2022-08-22T06:11:41.285Z,48.90
2022-08-22T06:14:28.976Z,49.10
2022-08-22T06:17:01.492Z,49.30
2022-08-22T06:19:32.902Z,49.30
2022-08-22T06:21:59.699Z,49.40
2022-08-22T06:24:27.017Z,49.80
2022-08-22T06:26:54.304Z,50.30
2022-08-22T06:29:44.420Z,50.90
2022-08-22T06:32:15.961Z,51.00
2022-08-22T06:34:43.097Z,51.60
2022-08-22T06:37:11.410Z,52.00
2022-08-22T06:39:42.074Z,52.30
2022-08-22T06:42:16.570Z,52.80
2022-08-22T06:44:43.685Z,53.30
2022-08-22T06:47:35.496Z,53.50
2022-08-22T06:50:06.128Z,54.00
2022-08-22T06:52:45.497Z,55.40
2022-08-22T06:55:15.203Z,55.40
2022-08-22T06:57:48.621Z,55.40
2022-08-22T07:00:15.623Z,55.70
2022-08-22T07:02:43.052Z,55.40
2022-08-22T07:05:13.682Z,55.70
2022-08-22T07:07:40.372Z,55.80
2022-08-22T07:10:07.092Z,56.00
2022-08-22T07:12:35.470Z,56.30
2022-08-22T07:15:09.774Z,56.00
2022-08-22T07:17:40.513Z,56.20
2022-08-22T07:20:25.805Z,56.10
2022-08-22T07:22:54.357Z,56.10
2022-08-22T07:25:21.030Z,56.50
2022-08-22T07:27:50.730Z,56.50
2022-08-22T07:30:27.359Z,56.60
2022-08-22T07:33:17.751Z,56.10
2022-08-22T07:35:54.952Z,55.90
2022-08-22T07:38:21.646Z,55.60
2022-08-22T07:40:48.487Z,55.70
2022-08-22T07:43:19.715Z,56.20
2022-08-22T07:45:54.186Z,55.70
2022-08-22T07:48:26.704Z,55.60
2022-08-22T07:50:58.263Z,55.90
2022-08-22T07:53:44.315Z,55.70
2022-08-22T07:56:21.569Z,55.50
2022-08-22T07:58:48.904Z,55.10
2022-08-22T08:01:17.022Z,55.10
2022-08-22T08:03:43.907Z,55.20
2022-08-22T08:06:10.719Z,54.80
2022-08-22T08:08:41.853Z,54.70
2022-08-22T08:11:09.962Z,54.60
2022-08-22T08:13:37.923Z,54.50
2022-08-22T08:16:05.183Z,54.70
2022-08-22T08:18:32.907Z,54.60
2022-08-22T08:21:02.108Z,54.20
2022-08-22T08:23:30.459Z,53.60
2022-08-22T08:26:00.420Z,53.20
2022-08-22T08:28:36.270Z,52.80
2022-08-22T08:31:15.303Z,52.70
2022-08-22T08:33:42.622Z,51.80
2022-08-22T08:36:11.266Z,51.50
2022-08-22T08:38:43.666Z,51.80
2022-08-22T08:41:10.432Z,52.10
2022-08-22T08:43:43.086Z,52.00
2022-08-22T08:46:14.363Z,52.10
2022-08-22T08:48:52.879Z,51.80
2022-08-22T08:51:38.432Z,51.70
2022-08-22T08:54:06.594Z,51.70
2022-08-22T08:56:34.239Z,51.80
2022-08-22T08:59:03.053Z,52.00
2022-08-22T09:01:44.966Z,52.20
2022-08-22T09:04:17.842Z,52.00
2022-08-22T09:06:56.700Z,51.80
2022-08-22T09:09:26.045Z,52.20
2022-08-22T09:11:53.251Z,52.40
2022-08-22T09:14:38.839Z,52.10
2022-08-22T09:17:08.733Z,52.00
2022-08-22T09:19:53.588Z,52.80
2022-08-22T09:22:50.887Z,52.30
2022-08-22T09:25:25.442Z,52.20
2022-08-22T09:28:11.065Z,52.20
2022-08-22T09:30:59.275Z,52.10
2022-08-22T09:33:30.193Z,52.50
2022-08-22T09:35:56.920Z,52.20
2022-08-22T09:38:47.943Z,52.20
2022-08-22T09:41:15.440Z,52.10
2022-08-22T09:43:50.273Z,51.90
2022-08-22T09:46:16.945Z,51.50
2022-08-22T09:49:11.643Z,51.10
2022-08-22T09:51:40.192Z,50.80
2022-08-22T09:54:13.203Z,50.40
2022-08-22T09:56:59.214Z,50.20
2022-08-22T09:59:45.608Z,50.30
2022-08-22T10:02:36.348Z,50.40
2022-08-22T10:05:03.962Z,50.60
2022-08-22T10:07:51.511Z,50.70
2022-08-22T10:10:28.881Z,50.90
2022-08-22T10:13:01.145Z,50.90
2022-08-22T10:15:40.215Z,51.10
2022-08-22T10:18:07.079Z,51.70
2022-08-22T10:20:44.748Z,51.30
2022-08-22T10:23:11.550Z,51.40
2022-08-22T10:25:41.745Z,51.40
2022-08-22T10:28:16.685Z,51.50
2022-08-22T10:30:52.415Z,51.50
2022-08-22T10:33:29.926Z,51.60
2022-08-22T10:35:58.903Z,51.60
2022-08-22T10:38:25.625Z,51.70
2022-08-22T10:40:58.069Z,51.60
2022-08-22T10:43:28.711Z,51.70
2022-08-22T10:46:01.740Z,51.70
2022-08-22T10:48:35.094Z,52.30
2022-08-22T10:51:20.730Z,51.40
2022-08-22T10:53:53.098Z,51.10
2022-08-22T10:56:22.646Z,50.80
2022-08-22T10:59:12.681Z,50.50
2022-08-22T11:01:42.122Z,50.40
2022-08-22T11:04:12.901Z,50.30
2022-08-22T11:06:47.009Z,50.50
2022-08-22T11:09:19.555Z,50.40
2022-08-22T11:11:54.246Z,50.40
2022-08-22T11:14:24.014Z,50.80
2022-08-22T11:17:23.627Z,50.90
2022-08-22T11:20:22.523Z,51.10
2022-08-22T11:23:12.665Z,51.20
2022-08-22T11:25:54.002Z,51.30
2022-08-22T11:28:33.373Z,51.40
2022-08-22T11:31:03.680Z,51.40
2022-08-22T11:33:46.701Z,51.60
2022-08-22T11:36:14.823Z,51.50
2022-08-22T11:38:59.667Z,51.70
2022-08-22T11:41:44.629Z,51.70
2022-08-22T11:44:20.919Z,51.80
2022-08-22T11:46:51.053Z,51.80
2022-08-22T11:49:26.792Z,51.70
2022-08-22T11:51:58.327Z,51.90
2022-08-22T11:54:44.162Z,51.70
2022-08-22T11:57:16.636Z,51.50
2022-08-22T11:59:43.440Z,51.10
2022-08-22T12:02:13.302Z,50.90
2022-08-22T12:04:42.511Z,50.50
2022-08-22T12:07:26.095Z,50.40
2022-08-22T12:10:13.723Z,50.30
2022-08-22T12:12:57.134Z,50.50
2022-08-22T12:15:27.587Z,50.50
2022-08-22T12:18:07.599Z,50.50
2022-08-22T12:20:46.946Z,50.80
2022-08-22T12:23:17.525Z,50.80
2022-08-22T12:25:47.361Z,51.10
2022-08-22T12:28:25.318Z,51.10
2022-08-22T12:30:58.079Z,51.20
2022-08-22T12:33:29.608Z,51.30
2022-08-22T12:36:18.411Z,51.30
2022-08-22T12:38:48.476Z,51.40
2022-08-22T12:41:28.212Z,51.40
2022-08-22T12:44:16.479Z,51.50
2022-08-22T12:46:49.997Z,51.60
2022-08-22T12:49:29.381Z,51.70
2022-08-22T12:52:14.823Z,51.70
2022-08-22T12:55:04.545Z,51.70
2022-08-22T12:57:37.389Z,51.50
2022-08-22T13:00:36.960Z,51.20
2022-08-22T13:03:11.136Z,50.90
2022-08-22T13:05:40.543Z,50.50
2022-08-22T13:08:17.623Z,50.30
2022-08-22T13:10:52.574Z,50.00
2022-08-22T13:13:37.202Z,50.10
2022-08-22T13:16:07.045Z,50.40
2022-08-22T13:18:39.925Z,50.50
2022-08-22T13:21:15.063Z,50.60
2022-08-22T13:23:43.080Z,50.60
2022-08-22T13:26:11.549Z,50.90
2022-08-22T13:29:09.247Z,50.90
2022-08-22T13:31:42.364Z,51.10
2022-08-22T13:34:43.648Z,51.10
2022-08-22T13:37:12.111Z,51.20
2022-08-22T13:39:41.486Z,51.40
2022-08-22T13:42:14.392Z,51.40
2022-08-22T13:44:48.373Z,51.50
2022-08-22T13:47:17.099Z,51.40
2022-08-22T13:49:47.527Z,51.60
2022-08-22T13:52:29.543Z,51.60
2022-08-22T13:55:15.773Z,51.60
2022-08-22T13:57:51.720Z,51.60
2022-08-22T14:00:29.015Z,51.40
2022-08-22T14:03:00.213Z,51.20
2022-08-22T14:05:31.445Z,50.80
2022-08-22T14:08:02.595Z,50.60
2022-08-22T14:10:29.992Z,50.40
2022-08-22T14:12:56.767Z,50.10
2022-08-22T14:15:25.103Z,50.20
2022-08-22T14:17:55.255Z,50.40
2022-08-22T14:20:32.368Z,50.60
2022-08-22T14:23:23.967Z,50.50
2022-08-22T14:25:53.969Z,50.70
2022-08-22T14:28:22.097Z,50.90
2022-08-22T14:31:08.575Z,51.00
2022-08-22T14:33:36.548Z,51.20
2022-08-22T14:36:27.316Z,51.20
2022-08-22T14:39:06.501Z,51.30
2022-08-22T14:41:56.010Z,51.40
2022-08-22T14:44:28.500Z,51.50
2022-08-22T14:47:00.151Z,51.60
2022-08-22T14:49:28.891Z,52.10
2022-08-22T14:52:02.987Z,51.80
2022-08-22T14:54:29.977Z,52.20
2022-08-22T14:56:56.722Z,52.40
2022-08-22T14:59:31.342Z,52.50
2022-08-22T15:02:17.905Z,52.50
2022-08-22T15:04:46.365Z,52.00
2022-08-22T15:07:23.982Z,51.60
2022-08-22T15:09:58.733Z,51.20
2022-08-22T15:12:29.651Z,50.80
2022-08-22T15:14:57.395Z,50.60
2022-08-22T15:17:36.428Z,50.30
2022-08-22T15:20:11.111Z,50.10
2022-08-22T15:22:39.880Z,50.60
2022-08-22T15:25:12.972Z,50.70
2022-08-22T15:27:55.001Z,50.60
2022-08-22T15:30:35.723Z,50.80
2022-08-22T15:33:15.088Z,51.40
2022-08-22T15:35:42.470Z,51.40
2022-08-22T15:38:29.019Z,51.50
2022-08-22T15:40:56.072Z,51.50
2022-08-22T15:43:22.913Z,51.70
2022-08-22T15:45:51.740Z,51.70
2022-08-22T15:48:29.492Z,51.70
2022-08-22T15:51:13.552Z,51.80
2022-08-22T15:53:43.307Z,51.70
2022-08-22T15:56:13.316Z,51.80
2022-08-22T15:58:48.119Z,51.80
2022-08-22T16:01:20.527Z,51.90
2022-08-22T16:03:59.635Z,51.80
2022-08-22T16:06:46.676Z,51.90
2022-08-22T16:09:28.832Z,51.50
2022-08-22T16:11:55.677Z,51.30
2022-08-22T16:14:23.590Z,50.80
2022-08-22T16:16:51.195Z,50.70
2022-08-22T16:19:20.272Z,50.40
2022-08-22T16:22:01.640Z,50.50
2022-08-22T16:24:30.681Z,50.60
2022-08-22T16:27:11.827Z,50.80
2022-08-22T16:29:41.279Z,51.10
2022-08-22T16:32:09.149Z,51.20
2022-08-22T16:34:36.460Z,51.50
2022-08-22T16:37:03.222Z,51.60
2022-08-22T16:39:40.516Z,51.50
2022-08-22T16:42:16.430Z,51.40
2022-08-22T16:44:43.235Z,51.50
2022-08-22T16:47:09.966Z,51.70
2022-08-22T16:49:39.307Z,51.80
2022-08-22T16:52:21.557Z,51.80
2022-08-22T16:54:49.065Z,51.90
2022-08-22T16:57:34.088Z,51.90
2022-08-22T17:00:11.225Z,51.90
2022-08-22T17:02:47.001Z,52.00
2022-08-22T17:05:22.174Z,52.00
2022-08-22T17:07:48.889Z,51.90
2022-08-22T17:10:35.155Z,51.70
2022-08-22T17:13:01.895Z,51.40
2022-08-22T17:15:34.397Z,51.00
2022-08-22T17:18:24.433Z,50.70
2022-08-22T17:21:02.845Z,50.60
2022-08-22T17:23:33.373Z,50.50
2022-08-22T17:26:06.269Z,50.70
2022-08-22T17:28:34.268Z,50.70
2022-08-22T17:31:04.368Z,50.80
2022-08-22T17:33:40.318Z,50.80
2022-08-22T17:36:07.067Z,51.00
2022-08-22T17:39:13.391Z,51.20
2022-08-22T17:41:40.122Z,51.30
2022-08-22T17:44:22.155Z,51.20
2022-08-22T17:46:51.016Z,51.20
2022-08-22T17:49:47.725Z,51.40
2022-08-22T17:52:20.675Z,51.70
2022-08-22T17:54:56.698Z,51.70
2022-08-22T17:57:23.392Z,51.30
2022-08-22T17:59:57.898Z,50.90
2022-08-22T18:02:29.120Z,50.50
2022-08-22T18:05:05.125Z,50.00
2022-08-22T18:07:37.880Z,49.50
2022-08-22T18:10:04.832Z,49.10
2022-08-22T18:12:34.437Z,49.10
2022-08-22T18:15:04.491Z,49.20
2022-08-22T18:17:35.729Z,49.40
2022-08-22T18:20:05.797Z,49.50
2022-08-22T18:22:43.915Z,49.70
2022-08-22T18:25:19.860Z,49.90
2022-08-22T18:27:47.414Z,49.90
2022-08-22T18:30:24.137Z,49.90
2022-08-22T18:33:09.601Z,50.10
2022-08-22T18:36:00.156Z,50.00
2022-08-22T18:38:30.080Z,50.20
2022-08-22T18:40:59.907Z,50.00
2022-08-22T18:43:36.889Z,50.40
2022-08-22T18:46:05.611Z,49.90
2022-08-22T18:48:54.336Z,49.50
2022-08-22T18:51:28.405Z,50.00
2022-08-22T18:54:01.136Z,49.90
2022-08-22T18:56:49.832Z,50.30
2022-08-22T18:59:30.352Z,50.30
2022-08-22T19:02:09.858Z,49.90
2022-08-22T19:04:45.911Z,49.10
2022-08-22T19:07:31.458Z,50.00
2022-08-22T19:10:02.320Z,49.70
2022-08-22T19:12:32.148Z,49.30
2022-08-22T19:15:08.133Z,48.80
2022-08-22T19:17:59.281Z,48.50
2022-08-22T19:20:52.191Z,48.00
2022-08-22T19:23:37.604Z,47.00
2022-08-22T19:26:24.289Z,47.30
2022-08-22T19:28:51.864Z,47.70
2022-08-22T19:31:22.452Z,48.00
2022-08-22T19:33:50.514Z,48.50
2022-08-22T19:36:31.486Z,48.70
2022-08-22T19:38:58.205Z,48.70
2022-08-22T19:41:41.471Z,48.80
2022-08-22T19:44:20.371Z,48.80
2022-08-22T19:47:02.536Z,48.70
2022-08-22T19:49:36.637Z,48.70
2022-08-22T19:52:15.693Z,48.70
2022-08-22T19:54:44.960Z,48.90
2022-08-22T19:57:13.887Z,48.80
2022-08-22T19:59:50.996Z,48.90
2022-08-22T20:02:18.725Z,49.20
2022-08-22T20:04:52.790Z,49.00
2022-08-22T20:07:25.443Z,49.10
2022-08-22T20:10:05.433Z,49.10
2022-08-22T20:12:38.420Z,49.20
2022-08-22T20:15:19.793Z,49.60
2022-08-22T20:18:11.724Z,49.30
2022-08-22T20:20:36.104Z,49.30
2022-08-22T20:23:06.153Z,49.20
2022-08-22T20:25:49.189Z,49.20
2022-08-22T20:28:33.330Z,49.20
2022-08-22T20:31:01.264Z,49.20
2022-08-22T20:33:36.160Z,49.10
2022-08-22T20:36:07.285Z,48.90
2022-08-22T20:38:55.757Z,48.70
2022-08-22T20:41:22.917Z,48.30
2022-08-22T20:44:03.698Z,48.00
2022-08-22T20:46:46.090Z,47.60
2022-08-22T20:49:17.772Z,47.60
2022-08-22T20:51:56.735Z,47.40
2022-08-22T20:54:25.212Z,47.50
2022-08-22T20:57:03.133Z,47.70
2022-08-22T20:59:49.259Z,47.80
2022-08-22T21:02:19.559Z,47.80
2022-08-22T21:04:46.262Z,48.00
2022-08-22T21:07:17.463Z,48.00
2022-08-22T21:10:10.511Z,48.10
2022-08-22T21:12:37.207Z,48.10
2022-08-22T21:15:04.039Z,48.30
2022-08-22T21:17:34.379Z,48.40
2022-08-22T21:20:15.457Z,48.50
2022-08-22T21:22:42.176Z,48.50
2022-08-22T21:25:08.891Z,48.80
2022-08-22T21:27:36.184Z,49.10
2022-08-22T21:30:04.495Z,49.00
2022-08-22T21:32:36.357Z,49.20
2022-08-22T21:35:03.908Z,49.10
2022-08-22T21:37:38.339Z,49.10
2022-08-22T21:40:15.233Z,49.10
2022-08-22T21:42:42.983Z,49.20
2022-08-22T21:45:11.190Z,49.20
2022-08-22T21:47:41.598Z,49.40
2022-08-22T21:50:20.591Z,49.30
2022-08-22T21:52:56.513Z,49.30
2022-08-22T21:55:23.984Z,49.30
2022-08-22T21:58:04.169Z,49.40
2022-08-22T22:00:49.966Z,49.70
2022-08-22T22:03:17.817Z,49.50
2022-08-22T22:05:44.577Z,49.20
2022-08-22T22:08:11.355Z,48.80
2022-08-22T22:10:38.779Z,48.50
2022-08-22T22:13:05.539Z,48.20
2022-08-22T22:15:34.286Z,47.80
2022-08-22T22:18:01.214Z,47.80
2022-08-22T22:20:28.418Z,47.90
2022-08-22T22:22:55.162Z,48.00
2022-08-22T22:25:39.998Z,48.00
2022-08-22T22:28:28.329Z,48.20
2022-08-22T22:30:55.024Z,48.40
2022-08-22T22:33:23.296Z,48.40
2022-08-22T22:35:50.181Z,48.30
2022-08-22T22:38:20.566Z,48.60
2022-08-22T22:40:50.026Z,48.50
2022-08-22T22:43:16.744Z,48.60
2022-08-22T22:45:43.457Z,48.70
2022-08-22T22:48:10.175Z,48.80
2022-08-22T22:50:40.650Z,48.90
2022-08-22T22:53:07.909Z,48.90
2022-08-22T22:55:36.427Z,49.00
2022-08-22T22:58:08.475Z,49.10
2022-08-22T23:00:37.257Z,49.00
2022-08-22T23:03:04.443Z,48.90
2022-08-22T23:05:31.244Z,49.00
2022-08-22T23:07:58.194Z,49.00
2022-08-22T23:10:25.734Z,49.00
2022-08-22T23:12:52.579Z,49.00
2022-08-22T23:15:19.341Z,48.90
2022-08-22T23:17:46.068Z,49.10
2022-08-22T23:20:12.797Z,49.00
2022-08-22T23:22:41.611Z,49.10
2022-08-22T23:25:08.704Z,49.00
2022-08-22T23:27:35.459Z,48.90
2022-08-22T23:30:02.464Z,49.00
2022-08-22T23:32:29.162Z,48.90
2022-08-22T23:34:56.255Z,49.40
2022-08-22T23:37:22.995Z,49.30
2022-08-22T23:39:50.193Z,49.00
2022-08-22T23:42:18.105Z,48.60
2022-08-22T23:44:45.345Z,48.30
2022-08-22T23:47:12.141Z,48.00
2022-08-22T23:49:39.065Z,47.60
2022-08-22T23:52:06.186Z,47.30
2022-08-22T23:54:32.922Z,47.40
2022-08-22T23:57:00.704Z,47.50
2022-08-22T23:59:30.663Z,47.60
